createdAt,value
2018-07-20T00:04:13.810Z,52.50
2018-07-20T00:11:37.100Z,53.20
2018-07-20T00:14:04.897Z,53.70
2018-07-20T00:16:32.635Z,54.00
2018-07-20T00:19:00.397Z,53.90
2018-07-20T00:21:28.143Z,54.20
2018-07-20T00:23:55.884Z,55.20
2018-07-20T00:26:23.600Z,55.50
2018-07-20T00:31:18.976Z,56.60
2018-07-20T00:33:46.738Z,56.00
2018-07-20T00:36:14.451Z,56.40
2018-07-20T00:38:42.211Z,56.70
2018-07-20T00:41:09.973Z,57.00
2018-07-20T00:43:37.718Z,56.50
2018-07-20T00:46:05.471Z,57.40
2018-07-20T00:48:33.223Z,57.30
2018-07-20T00:51:00.947Z,57.30
2018-07-20T00:53:28.727Z,57.40
2018-07-20T00:55:56.475Z,57.40
2018-07-20T00:58:24.271Z,57.60
2018-07-20T01:00:52.091Z,58.50
2018-07-20T01:03:19.843Z,60.50
2018-07-20T01:05:47.531Z,59.70
2018-07-20T01:08:15.262Z,60.00
2018-07-20T01:10:42.955Z,61.20
2018-07-20T01:13:10.691Z,61.10
2018-07-20T01:15:38.461Z,60.70
2018-07-20T01:18:06.301Z,61.10
2018-07-20T01:20:34.063Z,61.30
2018-07-20T01:23:01.808Z,61.90
2018-07-20T01:25:29.552Z,62.70
2018-07-20T01:27:57.366Z,63.30
2018-07-20T01:30:25.102Z,63.60
2018-07-20T01:32:52.963Z,63.60
2018-07-20T01:35:20.711Z,63.80
2018-07-20T01:37:48.489Z,64.40
2018-07-20T01:40:16.237Z,65.30
2018-07-20T01:42:43.993Z,65.30
2018-07-20T01:47:39.372Z,67.60
2018-07-20T01:50:07.168Z,67.50
2018-07-20T01:52:34.949Z,67.50
2018-07-20T01:55:02.713Z,67.60
2018-07-20T01:59:58.072Z,68.10
2018-07-20T02:02:25.828Z,67.80
2018-07-20T02:07:21.174Z,68.90
2018-07-20T02:09:48.891Z,68.10
2018-07-20T02:12:16.663Z,67.70
2018-07-20T02:14:44.416Z,68.30
2018-07-20T02:17:12.184Z,68.30
2018-07-20T02:19:39.889Z,69.90
2018-07-20T02:22:07.636Z,70.10
2018-07-20T02:24:35.425Z,71.00
2018-07-20T02:27:03.253Z,72.20
2018-07-20T02:29:31.085Z,71.80
2018-07-20T02:31:58.815Z,72.30
2018-07-20T02:34:26.583Z,71.90
2018-07-20T02:36:54.330Z,71.80
2018-07-20T02:39:22.107Z,71.30
2018-07-20T02:41:49.877Z,71.90
2018-07-20T02:44:17.635Z,71.40
2018-07-20T02:46:45.407Z,71.80
2018-07-20T02:49:13.182Z,71.60
2018-07-20T02:51:40.972Z,71.50
2018-07-20T02:54:08.791Z,71.50
2018-07-20T02:56:36.563Z,71.30
2018-07-20T02:59:04.347Z,71.90
2018-07-20T03:01:32.147Z,72.40
2018-07-20T03:03:59.903Z,73.70
2018-07-20T03:06:27.807Z,74.00
2018-07-20T03:11:23.290Z,74.50
2018-07-20T03:13:51.101Z,73.10
2018-07-20T03:16:19.009Z,74.10
2018-07-20T03:18:46.815Z,73.70
2018-07-20T03:21:14.605Z,73.80
2018-07-20T03:23:42.403Z,74.10
2018-07-20T03:26:10.132Z,74.20
2018-07-20T03:28:37.934Z,74.00
2018-07-20T03:31:05.771Z,74.70
2018-07-20T03:33:33.566Z,74.00
2018-07-20T03:36:01.356Z,74.20
2018-07-20T03:38:29.163Z,75.00
2018-07-20T03:40:56.895Z,74.10
2018-07-20T03:45:52.312Z,74.00
2018-07-20T03:48:20.099Z,73.70
2018-07-20T03:53:15.508Z,74.40
2018-07-20T03:55:43.271Z,74.10
2018-07-20T03:58:11.067Z,75.00
2018-07-20T04:00:38.854Z,75.10
2018-07-20T04:03:06.732Z,74.90
2018-07-20T04:05:34.472Z,74.20
2018-07-20T04:08:02.235Z,73.50
2018-07-20T04:10:29.981Z,72.90
2018-07-20T04:12:57.760Z,73.60
2018-07-20T04:15:25.498Z,73.10
2018-07-20T04:17:53.280Z,73.50
2018-07-20T04:20:21.022Z,74.20
2018-07-20T04:22:48.831Z,72.50
2018-07-20T04:25:16.578Z,72.80
2018-07-20T04:27:44.411Z,72.80
2018-07-20T04:30:13.963Z,73.00
2018-07-20T04:32:41.842Z,73.70
2018-07-20T04:35:10.315Z,73.00
2018-07-20T04:37:38.140Z,72.60
2018-07-20T04:40:06.348Z,72.50
2018-07-20T04:42:34.565Z,71.70
2018-07-20T04:45:02.372Z,71.70
2018-07-20T04:47:30.124Z,72.00
2018-07-20T04:49:57.904Z,72.80
2018-07-20T04:57:20.940Z,72.50
2018-07-20T04:59:48.692Z,73.10
2018-07-20T05:02:16.536Z,73.30
2018-07-20T05:04:44.280Z,73.80
2018-07-20T05:09:39.668Z,75.60
2018-07-20T05:12:07.427Z,74.50
2018-07-20T05:14:35.198Z,79.90
2018-07-20T05:17:02.971Z,82.50
2018-07-20T05:19:30.790Z,82.50
2018-07-20T05:21:58.521Z,82.90
2018-07-20T05:26:53.990Z,84.00
2018-07-20T05:29:22.262Z,83.50
2018-07-20T05:31:50.082Z,83.80
2018-07-20T05:34:17.953Z,83.30
2018-07-20T05:36:45.751Z,82.30
2018-07-20T05:39:13.567Z,81.30
2018-07-20T05:41:41.497Z,78.00
2018-07-20T05:44:09.301Z,78.90
2018-07-20T05:46:37.159Z,78.30
2018-07-20T05:49:04.959Z,78.30
2018-07-20T05:51:32.751Z,76.60
2018-07-20T05:54:00.599Z,75.00
2018-07-20T05:56:28.343Z,74.80
2018-07-20T05:58:56.079Z,75.20
2018-07-20T06:01:23.873Z,74.00
2018-07-20T06:03:51.612Z,72.20
2018-07-20T06:06:19.355Z,71.80
2018-07-20T06:08:47.110Z,70.80
2018-07-20T06:11:14.904Z,70.60
2018-07-20T06:13:42.691Z,69.50
2018-07-20T06:16:10.460Z,69.00
2018-07-20T06:18:38.246Z,68.20
2018-07-20T06:23:34.212Z,67.70
2018-07-20T06:26:01.992Z,68.00
2018-07-20T06:28:29.988Z,68.50
2018-07-20T06:30:57.739Z,67.00
2018-07-20T06:33:25.496Z,67.60
2018-07-20T06:35:53.251Z,68.20
2018-07-20T06:38:21.035Z,66.20
2018-07-20T06:40:48.764Z,64.30
2018-07-20T06:43:16.545Z,63.00
2018-07-20T06:45:44.311Z,61.50
2018-07-20T06:48:12.067Z,62.30
2018-07-20T06:50:39.819Z,62.40
2018-07-20T06:53:07.648Z,60.90
2018-07-20T06:55:35.384Z,61.70
2018-07-20T06:58:03.176Z,61.10
2018-07-20T07:00:30.955Z,61.50
2018-07-20T07:05:26.376Z,61.30
2018-07-20T07:07:54.147Z,60.10
2018-07-20T07:12:49.533Z,59.20
2018-07-20T07:15:17.398Z,56.70
2018-07-20T07:20:12.699Z,58.10
2018-07-20T07:22:40.467Z,56.70
2018-07-20T07:25:08.188Z,55.30
2018-07-20T07:27:35.951Z,54.50
2018-07-20T07:32:31.943Z,54.40
2018-07-20T07:34:59.711Z,52.20
2018-07-20T07:37:27.495Z,51.70
2018-07-20T07:39:55.368Z,52.50
2018-07-20T07:42:23.123Z,51.40
2018-07-20T07:44:50.882Z,51.10
2018-07-20T07:47:18.592Z,48.90
2018-07-20T07:49:46.340Z,47.90
2018-07-20T07:52:14.093Z,49.50
2018-07-20T07:54:41.857Z,50.20
2018-07-20T07:57:10.134Z,47.90
2018-07-20T07:59:37.935Z,47.10
2018-07-20T08:04:33.425Z,44.90
2018-07-20T08:07:01.112Z,46.20
2018-07-20T08:09:29.226Z,46.30
2018-07-20T08:11:56.986Z,45.20
2018-07-20T08:14:24.760Z,45.60
2018-07-20T08:16:52.564Z,45.60
2018-07-20T08:19:20.295Z,44.80
2018-07-20T08:21:48.088Z,45.40
2018-07-20T08:24:15.856Z,43.20
2018-07-20T08:26:43.608Z,42.50
2018-07-20T08:29:11.398Z,44.00
2018-07-20T08:31:39.166Z,44.80
2018-07-20T08:34:06.886Z,42.80
2018-07-20T08:39:03.095Z,40.20
2018-07-20T08:41:30.808Z,38.10
2018-07-20T08:43:58.543Z,35.80
2018-07-20T08:46:26.312Z,35.70
2018-07-20T08:48:54.095Z,33.40
2018-07-20T08:51:21.794Z,29.90
2018-07-20T08:53:49.516Z,28.40
2018-07-20T08:56:17.247Z,28.20
2018-07-20T09:01:12.646Z,25.70
2018-07-20T09:08:35.805Z,28.30
2018-07-20T09:11:03.607Z,27.40
2018-07-20T09:13:31.478Z,26.80
2018-07-20T09:15:59.235Z,25.80
2018-07-20T09:18:27.014Z,26.20
2018-07-20T09:20:54.798Z,25.40
2018-07-20T09:23:22.560Z,24.00
2018-07-20T09:25:50.315Z,23.90
2018-07-20T09:30:45.767Z,24.90
2018-07-20T09:33:13.565Z,25.20
2018-07-20T09:35:41.372Z,23.90
2018-07-20T09:38:09.122Z,24.20
2018-07-20T09:40:37.129Z,25.70
2018-07-20T09:43:04.986Z,26.50
2018-07-20T09:45:32.791Z,27.80
2018-07-20T09:48:00.555Z,24.00
2018-07-20T09:50:28.349Z,21.50
2018-07-20T09:55:23.847Z,23.10
2018-07-20T09:57:51.607Z,22.50
2018-07-20T10:00:23.884Z,21.10
2018-07-20T10:02:51.708Z,19.60
2018-07-20T10:05:19.580Z,20.90
2018-07-20T10:07:47.319Z,21.10
2018-07-20T10:12:42.813Z,19.00
2018-07-20T10:15:10.512Z,18.40
2018-07-20T10:20:05.905Z,20.30
2018-07-20T10:22:33.657Z,19.90
2018-07-20T10:25:01.356Z,19.50
2018-07-20T10:27:29.065Z,19.30
2018-07-20T10:29:56.758Z,19.20
2018-07-20T10:32:24.446Z,19.10
2018-07-20T10:34:52.141Z,18.30
2018-07-20T10:37:19.852Z,17.40
2018-07-20T10:39:47.527Z,15.90
2018-07-20T10:42:15.318Z,14.20
2018-07-20T10:49:38.156Z,15.70
2018-07-20T10:52:06.427Z,15.40
2018-07-20T10:54:34.138Z,14.60
2018-07-20T10:59:29.479Z,14.10
2018-07-20T11:01:57.182Z,13.00
2018-07-20T11:04:24.897Z,13.40
2018-07-20T11:06:52.591Z,14.00
2018-07-20T11:09:20.280Z,14.90
2018-07-20T11:11:47.991Z,15.10
2018-07-20T11:14:15.825Z,15.10
2018-07-20T11:16:43.626Z,16.30
2018-07-20T11:19:11.356Z,15.80
2018-07-20T11:21:39.731Z,16.30
2018-07-20T11:24:07.428Z,14.40
2018-07-20T11:26:35.226Z,12.90
2018-07-20T11:29:03.094Z,11.60
2018-07-20T11:31:30.850Z,12.30
2018-07-20T11:33:58.559Z,12.60
2018-07-20T11:36:26.362Z,13.00
2018-07-20T11:38:54.116Z,11.90
2018-07-20T11:41:21.990Z,12.20
2018-07-20T11:43:49.775Z,13.20
2018-07-20T11:46:18.520Z,13.90
2018-07-20T11:51:13.943Z,12.50
2018-07-20T11:56:09.357Z,13.20
2018-07-20T11:58:37.187Z,13.80
2018-07-20T12:01:04.966Z,13.50
2018-07-20T12:03:32.796Z,13.90
2018-07-20T12:06:00.571Z,14.60
2018-07-20T12:08:28.347Z,14.30
2018-07-20T12:10:56.095Z,14.30
2018-07-20T12:13:23.931Z,12.90
2018-07-20T12:18:19.351Z,13.30
2018-07-20T12:20:47.136Z,13.90
2018-07-20T12:25:42.689Z,13.80
2018-07-20T12:28:10.511Z,14.40
2018-07-20T12:30:38.235Z,14.50
2018-07-20T12:33:06.139Z,13.00
2018-07-20T12:35:33.908Z,12.60
2018-07-20T12:38:01.725Z,12.80
2018-07-20T12:40:29.554Z,13.80
2018-07-20T12:42:57.448Z,12.80
2018-07-20T12:45:25.316Z,12.70
2018-07-20T12:47:53.071Z,13.30
2018-07-20T12:50:20.920Z,12.90
2018-07-20T12:52:48.608Z,13.10
2018-07-20T12:55:16.381Z,12.60
2018-07-20T12:57:44.175Z,12.40
2018-07-20T13:00:12.088Z,13.80
2018-07-20T13:02:39.889Z,14.70
2018-07-20T13:05:07.720Z,14.40
2018-07-20T13:07:35.489Z,14.80
2018-07-20T13:10:03.627Z,14.80
2018-07-20T13:12:31.394Z,15.00
2018-07-20T13:22:22.238Z,17.20
2018-07-20T13:24:50.037Z,17.80
2018-07-20T13:27:18.704Z,17.90
2018-07-20T13:29:46.483Z,17.20
2018-07-20T13:34:41.946Z,16.70
2018-07-20T13:37:09.727Z,17.00
2018-07-20T13:39:37.524Z,17.00
2018-07-20T13:44:32.992Z,17.00
2018-07-20T13:47:00.819Z,17.00
2018-07-20T13:51:56.279Z,16.30
2018-07-20T13:54:24.010Z,16.40
2018-07-20T13:56:51.847Z,16.20
2018-07-20T13:59:19.668Z,16.00
2018-07-20T14:01:47.513Z,15.80
2018-07-20T14:06:43.035Z,15.90
2018-07-20T14:09:11.459Z,15.90
2018-07-20T14:11:39.339Z,15.90
2018-07-20T14:14:07.792Z,16.80
2018-07-20T14:16:35.586Z,17.10
2018-07-20T14:19:03.400Z,17.60
2018-07-20T14:21:31.159Z,16.90
2018-07-20T14:23:59.212Z,16.20
2018-07-20T14:26:27.048Z,16.60
2018-07-20T14:28:54.804Z,17.30
2018-07-20T14:31:22.572Z,17.40
2018-07-20T14:33:50.355Z,17.50
2018-07-20T14:36:18.165Z,16.80
2018-07-20T14:38:46.355Z,17.50
2018-07-20T14:43:41.742Z,17.20
2018-07-20T14:46:09.544Z,17.00
2018-07-20T14:58:28.073Z,17.10
2018-07-20T15:00:55.828Z,17.00
2018-07-20T15:05:51.209Z,17.10
2018-07-20T15:08:18.956Z,21.40
2018-07-20T15:10:47.408Z,18.30
2018-07-20T15:13:15.207Z,19.10
2018-07-20T15:15:42.947Z,18.40
2018-07-20T15:18:10.680Z,19.00
2018-07-20T15:25:33.780Z,18.70
2018-07-20T15:28:01.526Z,18.30
2018-07-20T15:32:56.979Z,18.40
2018-07-20T15:35:24.769Z,18.40
2018-07-20T15:37:52.520Z,18.60
2018-07-20T15:40:20.334Z,19.30
2018-07-20T15:42:48.108Z,20.90
2018-07-20T15:45:15.876Z,21.40
2018-07-20T15:47:43.664Z,21.30
2018-07-20T15:50:11.527Z,21.60
2018-07-20T15:55:07.273Z,21.40
2018-07-20T15:57:35.097Z,21.40
2018-07-20T16:00:03.025Z,21.60
2018-07-20T16:02:30.806Z,21.50
2018-07-20T16:04:58.566Z,21.60
2018-07-20T16:07:27.095Z,22.00
2018-07-20T16:12:22.540Z,22.00
2018-07-20T16:17:17.970Z,21.80
2018-07-20T16:22:13.386Z,22.70
2018-07-20T16:24:41.146Z,22.60
2018-07-20T16:27:08.918Z,22.60
2018-07-20T16:29:36.666Z,22.80
2018-07-20T16:32:04.458Z,22.60
2018-07-20T16:34:32.288Z,22.70
2018-07-20T16:37:00.032Z,23.40
2018-07-20T16:39:27.792Z,23.00
2018-07-20T16:41:55.606Z,23.10
2018-07-20T16:44:23.467Z,23.20
2018-07-20T16:46:51.271Z,23.40
2018-07-20T16:49:19.017Z,23.60
2018-07-20T16:51:46.779Z,23.40
2018-07-20T16:54:14.543Z,23.70
2018-07-20T16:56:42.289Z,23.40
2018-07-20T16:59:10.084Z,23.40
2018-07-20T17:01:37.808Z,23.50
2018-07-20T17:04:05.547Z,23.40
2018-07-20T17:06:33.378Z,23.80
2018-07-20T17:09:01.141Z,24.00
2018-07-20T17:11:28.975Z,24.30
2018-07-20T17:13:56.770Z,24.30
2018-07-20T17:16:24.751Z,24.50
2018-07-20T17:18:52.499Z,24.50
2018-07-20T17:21:20.279Z,24.50
2018-07-20T17:23:48.023Z,24.90
2018-07-20T17:26:15.781Z,24.40
2018-07-20T17:28:43.538Z,24.00
2018-07-20T17:33:38.954Z,23.90
2018-07-20T17:36:06.784Z,22.70
2018-07-20T17:38:34.707Z,22.10
2018-07-20T17:41:02.664Z,21.80
2018-07-20T17:43:30.443Z,22.20
2018-07-20T17:45:58.193Z,21.90
2018-07-20T17:50:53.514Z,22.40
2018-07-20T17:53:21.287Z,22.50
2018-07-20T17:55:49.015Z,22.10
2018-07-20T17:58:16.935Z,22.60
2018-07-20T18:03:12.267Z,22.20
2018-07-20T18:05:39.952Z,24.90
2018-07-20T18:08:07.674Z,27.00
2018-07-20T18:10:35.500Z,28.50
2018-07-20T18:13:03.275Z,30.50
2018-07-20T18:15:31.019Z,32.80
2018-07-20T18:17:59.437Z,36.50
2018-07-20T18:20:27.171Z,39.60
2018-07-20T18:22:54.891Z,44.50
2018-07-20T18:27:50.232Z,52.50
2018-07-20T18:30:17.966Z,57.40
2018-07-20T18:35:13.360Z,69.60
2018-07-20T18:37:41.146Z,68.40
2018-07-20T18:40:08.879Z,72.10
2018-07-20T18:42:36.563Z,65.60
2018-07-20T18:45:05.382Z,75.40
2018-07-20T18:47:33.120Z,76.60
2018-07-20T18:50:00.859Z,76.90
2018-07-20T18:52:28.620Z,77.50
2018-07-20T18:54:56.380Z,73.80
2018-07-20T18:57:24.104Z,78.60
2018-07-20T19:02:19.447Z,74.50
2018-07-20T19:04:47.199Z,76.30
2018-07-20T19:09:42.534Z,70.00
2018-07-20T19:12:10.327Z,72.60
2018-07-20T19:14:38.130Z,70.90
2018-07-20T19:19:33.803Z,70.30
2018-07-20T19:22:01.542Z,71.80
2018-07-20T19:26:56.919Z,71.00
2018-07-20T19:29:24.636Z,69.90
2018-07-20T19:31:52.355Z,67.50
2018-07-20T19:34:20.148Z,66.60
2018-07-20T19:36:47.886Z,63.60
2018-07-20T19:39:15.579Z,67.20
2018-07-20T19:44:10.892Z,70.60
2018-07-20T19:46:38.664Z,68.20
2018-07-20T19:51:34.050Z,66.00
2018-07-20T19:54:01.879Z,66.10
2018-07-20T19:56:29.664Z,65.10
2018-07-20T19:58:57.449Z,53.00
2018-07-20T20:01:25.127Z,49.50
2018-07-20T20:03:52.905Z,48.30
2018-07-20T20:06:20.655Z,44.20
2018-07-20T20:08:48.400Z,43.50
2018-07-20T20:11:16.096Z,41.80
2018-07-20T20:13:43.819Z,41.60
2018-07-20T20:16:11.511Z,40.40
2018-07-20T20:18:39.246Z,41.10
2018-07-20T20:21:06.979Z,42.20
2018-07-20T20:26:02.427Z,40.60
2018-07-20T20:28:30.143Z,41.50
2018-07-20T20:30:57.848Z,42.70
2018-07-20T20:33:25.573Z,40.90
2018-07-20T20:35:53.260Z,41.00
2018-07-20T20:38:21.027Z,40.70
2018-07-20T20:40:48.761Z,40.10
2018-07-20T20:43:16.478Z,40.70
2018-07-20T20:45:44.185Z,40.40
2018-07-20T20:48:11.978Z,42.20
2018-07-20T20:55:34.883Z,40.50
2018-07-20T20:58:02.559Z,39.80
2018-07-20T21:00:30.284Z,40.50
2018-07-20T21:05:25.693Z,40.10
2018-07-20T21:07:53.413Z,40.10
2018-07-20T21:10:21.293Z,39.30
2018-07-20T21:12:49.057Z,39.10
2018-07-20T21:15:16.897Z,38.80
2018-07-20T21:17:44.647Z,39.70
2018-07-20T21:20:12.448Z,39.00
2018-07-20T21:22:40.212Z,39.40
2018-07-20T21:25:08.043Z,39.10
2018-07-20T21:30:04.134Z,39.80
2018-07-20T21:32:31.955Z,39.40
2018-07-20T21:34:59.755Z,39.00
2018-07-20T21:37:27.548Z,38.80
2018-07-20T21:39:55.382Z,39.00
2018-07-20T21:42:23.220Z,38.60
2018-07-20T21:44:50.986Z,40.00
2018-07-20T21:47:18.715Z,39.20
2018-07-20T21:52:14.142Z,39.90
2018-07-20T21:57:09.530Z,39.50
2018-07-20T21:59:37.303Z,38.30
2018-07-20T22:02:05.104Z,39.60
2018-07-20T22:07:00.548Z,39.70
2018-07-20T22:09:28.291Z,39.70
2018-07-20T22:11:56.680Z,40.20
2018-07-20T22:14:24.458Z,39.70
2018-07-20T22:16:52.252Z,40.40
2018-07-20T22:19:19.964Z,40.40
2018-07-20T22:21:47.699Z,40.70
2018-07-20T22:24:15.638Z,39.10
2018-07-20T22:26:43.432Z,39.30
2018-07-20T22:29:11.206Z,40.10
2018-07-20T22:31:38.975Z,40.20
2018-07-20T22:34:06.728Z,40.30
2018-07-20T22:36:34.507Z,39.80
2018-07-20T22:39:02.564Z,39.80
2018-07-20T22:41:30.319Z,39.80
2018-07-20T22:43:58.121Z,38.60
2018-07-20T22:48:53.492Z,39.20
2018-07-20T22:53:48.951Z,39.90
2018-07-20T22:58:44.368Z,39.30
2018-07-20T23:01:12.089Z,39.90
2018-07-20T23:03:39.922Z,38.70
2018-07-20T23:06:07.708Z,39.00
2018-07-20T23:13:30.922Z,39.50
2018-07-20T23:15:58.737Z,39.00
2018-07-20T23:18:26.549Z,38.50
2018-07-20T23:20:54.320Z,37.70
2018-07-20T23:23:22.036Z,37.80
2018-07-20T23:25:49.816Z,38.40
2018-07-20T23:30:45.163Z,39.50
2018-07-20T23:33:12.911Z,38.80
2018-07-20T23:38:09.242Z,39.50
2018-07-20T23:40:37.003Z,39.20
2018-07-20T23:43:05.036Z,39.60
2018-07-20T23:45:32.794Z,39.50
2018-07-20T23:48:00.555Z,39.60
2018-07-20T23:50:28.300Z,39.10
2018-07-20T23:57:51.357Z,39.60
